createdAt,value
2023-02-16T00:01:54.544Z,17.67
2023-02-16T00:04:26.873Z,17.02
2023-02-16T00:06:54.690Z,18.30
2023-02-16T00:09:22.967Z,17.23
2023-02-16T00:12:09.712Z,18.15
2023-02-16T00:14:38.701Z,17.23
2023-02-16T00:17:06.865Z,18.80
2023-02-16T00:19:39.051Z,18.58
2023-02-16T00:22:07.445Z,18.30
2023-02-16T00:24:34.828Z,18.20
2023-02-16T00:27:01.425Z,19.45
2023-02-16T00:29:31.605Z,18.73
2023-02-16T00:32:00.547Z,19.52
2023-02-16T00:34:27.205Z,18.15
2023-02-16T00:36:55.054Z,18.33
2023-02-16T00:39:25.010Z,19.90
2023-02-16T00:41:55.606Z,18.80
2023-02-16T00:44:44.100Z,18.92
2023-02-16T00:47:30.216Z,18.20
2023-02-16T00:49:57.076Z,17.35
2023-02-16T00:52:33.973Z,18.30
2023-02-16T00:55:02.505Z,18.90
2023-02-16T00:57:34.059Z,18.15
2023-02-16T01:00:06.320Z,19.15
2023-02-16T01:02:33.110Z,18.80
2023-02-16T01:04:59.693Z,19.13
2023-02-16T01:07:44.716Z,17.92
2023-02-16T01:10:30.537Z,17.45
2023-02-16T01:12:57.304Z,19.30
2023-02-16T01:15:25.915Z,17.65
2023-02-16T01:17:52.486Z,20.38
2023-02-16T01:20:24.756Z,18.30
2023-02-16T01:22:52.010Z,18.80
2023-02-16T01:25:18.708Z,18.88
2023-02-16T01:27:47.856Z,20.02
2023-02-16T01:30:19.800Z,19.90
2023-02-16T01:32:51.455Z,20.33
2023-02-16T01:35:24.273Z,19.58
2023-02-16T01:37:51.051Z,19.25
2023-02-16T01:40:28.947Z,20.40
2023-02-16T01:43:04.129Z,18.88
2023-02-16T01:45:38.244Z,20.15
2023-02-16T01:48:07.538Z,18.98
2023-02-16T01:50:52.625Z,19.05
2023-02-16T01:53:26.680Z,18.00
2023-02-16T01:56:00.227Z,19.83
2023-02-16T01:58:39.986Z,19.40
2023-02-16T02:01:24.383Z,17.40
2023-02-16T02:04:09.440Z,19.23
2023-02-16T02:06:37.302Z,20.20
2023-02-16T02:09:34.359Z,19.00
2023-02-16T02:12:26.485Z,19.27
2023-02-16T02:14:53.051Z,18.73
2023-02-16T02:17:21.426Z,19.65
2023-02-16T02:20:13.505Z,20.50
2023-02-16T02:23:17.259Z,20.25
2023-02-16T02:26:26.839Z,19.63
2023-02-16T02:34:40.739Z,18.60
2023-02-16T02:37:26.767Z,17.73
2023-02-16T02:40:22.678Z,20.10
2023-02-16T02:43:07.392Z,19.85
2023-02-16T02:45:38.646Z,18.73
2023-02-16T02:48:07.024Z,20.17
2023-02-16T02:51:09.501Z,20.98
2023-02-16T02:53:47.319Z,19.75
2023-02-16T02:56:35.466Z,19.90
2023-02-16T02:59:24.770Z,20.42
2023-02-16T03:01:58.124Z,18.80
2023-02-16T03:04:29.016Z,19.60
2023-02-16T03:06:58.292Z,20.33
2023-02-16T03:09:25.492Z,19.42
2023-02-16T03:12:14.133Z,19.77
2023-02-16T03:15:10.543Z,20.33
2023-02-16T03:17:58.588Z,19.77
2023-02-16T03:20:44.626Z,18.77
2023-02-16T03:23:31.132Z,19.38
2023-02-16T03:26:16.314Z,18.73
2023-02-16T03:29:03.334Z,20.30
2023-02-16T03:31:34.516Z,20.70
2023-02-16T03:34:02.579Z,19.42
2023-02-16T03:36:32.736Z,19.10
2023-02-16T03:38:59.788Z,19.98
2023-02-16T03:41:31.437Z,20.30
2023-02-16T03:43:58.126Z,19.23
2023-02-16T03:46:24.871Z,22.30
2023-02-16T03:48:51.468Z,20.83
2023-02-16T03:51:18.170Z,20.10
2023-02-16T03:53:44.750Z,20.08
2023-02-16T03:56:11.380Z,19.75
2023-02-16T03:58:37.935Z,23.05
2023-02-16T04:01:04.840Z,21.25
2023-02-16T04:03:31.670Z,20.83
2023-02-16T04:05:58.272Z,21.50
2023-02-16T04:08:24.839Z,21.75
2023-02-16T04:10:51.414Z,22.25
2023-02-16T04:13:18.115Z,22.90
2023-02-16T04:15:44.739Z,21.60
2023-02-16T04:18:11.337Z,21.55
2023-02-16T04:20:38.009Z,22.50
2023-02-16T04:23:04.816Z,21.25
2023-02-16T04:25:31.508Z,22.23
2023-02-16T04:27:58.339Z,21.38
2023-02-16T04:30:28.311Z,22.10
2023-02-16T04:32:55.497Z,21.67
2023-02-16T04:35:23.107Z,21.92
2023-02-16T04:37:49.790Z,22.33
2023-02-16T04:40:17.707Z,22.83
2023-02-16T04:42:45.584Z,22.90
2023-02-16T04:45:12.824Z,22.42
2023-02-16T04:47:39.778Z,23.42
2023-02-16T04:50:07.118Z,22.60
2023-02-16T04:52:34.251Z,22.67
2023-02-16T04:55:01.044Z,21.67
2023-02-16T04:57:27.996Z,23.30
2023-02-16T04:59:55.232Z,22.20
2023-02-16T05:02:22.027Z,21.05
2023-02-16T05:04:48.605Z,21.77
2023-02-16T05:07:15.299Z,22.73
2023-02-16T05:09:42.083Z,22.95
2023-02-16T05:12:29.329Z,24.02
2023-02-16T05:14:55.962Z,23.33
2023-02-16T05:17:24.765Z,21.23
2023-02-16T05:19:57.017Z,18.83
2023-02-16T05:22:24.814Z,22.58
2023-02-16T05:24:51.775Z,24.50
2023-02-16T05:27:24.317Z,23.75
2023-02-16T05:29:50.962Z,25.38
2023-02-16T05:32:17.883Z,24.75
2023-02-16T05:34:45.485Z,26.00
2023-02-16T05:37:14.049Z,25.27
2023-02-16T05:39:41.194Z,25.88
2023-02-16T05:42:08.284Z,25.65
2023-02-16T05:44:34.911Z,24.67
2023-02-16T05:47:01.606Z,25.17
2023-02-16T05:49:28.357Z,26.98
2023-02-16T05:51:55.044Z,24.27
2023-02-16T05:54:21.674Z,25.27
2023-02-16T05:56:50.886Z,27.35
2023-02-16T05:59:17.893Z,25.52
2023-02-16T06:01:49.388Z,24.83
2023-02-16T06:04:18.357Z,24.27
2023-02-16T06:06:45.053Z,23.88
2023-02-16T06:09:11.722Z,24.75
2023-02-16T06:11:38.535Z,24.27
2023-02-16T06:14:10.215Z,24.65
2023-02-16T06:16:39.703Z,22.85
2023-02-16T06:19:07.376Z,25.90
2023-02-16T06:21:34.936Z,26.15
2023-02-16T06:24:02.010Z,25.92
2023-02-16T06:26:28.721Z,26.63
2023-02-16T06:28:55.844Z,25.02
2023-02-16T06:31:23.687Z,26.98
2023-02-16T06:33:50.852Z,27.35
2023-02-16T06:36:18.344Z,29.05
2023-02-16T06:38:45.567Z,30.40
2023-02-16T06:41:12.414Z,28.80
2023-02-16T06:43:39.158Z,30.35
2023-02-16T06:46:05.958Z,31.25
2023-02-16T06:48:32.640Z,32.15
2023-02-16T06:50:59.301Z,33.70
2023-02-16T06:53:25.870Z,34.05
2023-02-16T06:55:52.517Z,32.60
2023-02-16T06:58:19.295Z,34.67
2023-02-16T07:00:46.296Z,35.05
2023-02-16T07:03:13.005Z,35.90
2023-02-16T07:05:39.712Z,33.30
2023-02-16T07:08:06.296Z,36.47
2023-02-16T07:10:48.579Z,34.60
2023-02-16T07:13:16.065Z,33.95
2023-02-16T07:15:42.619Z,34.60
2023-02-16T07:18:09.364Z,33.20
2023-02-16T07:20:35.962Z,34.95
2023-02-16T07:23:02.620Z,35.65
2023-02-16T07:25:29.405Z,33.55
2023-02-16T07:27:56.134Z,34.75
2023-02-16T07:30:22.914Z,34.28
2023-02-16T07:32:49.566Z,33.72
2023-02-16T07:35:16.159Z,34.67
2023-02-16T07:37:42.706Z,33.17
2023-02-16T07:40:10.253Z,34.33
2023-02-16T07:42:37.238Z,33.75
2023-02-16T07:45:04.218Z,32.58
2023-02-16T07:47:30.774Z,34.05
2023-02-16T07:49:57.340Z,32.72
2023-02-16T07:52:28.805Z,32.58
2023-02-16T07:54:55.316Z,31.38
2023-02-16T07:57:22.282Z,32.90
2023-02-16T07:59:52.494Z,31.88
2023-02-16T08:02:20.308Z,33.80
2023-02-16T08:04:48.488Z,34.33
2023-02-16T08:07:16.670Z,31.70
2023-02-16T08:09:43.326Z,33.13
2023-02-16T08:12:11.492Z,32.85
2023-02-16T08:14:39.054Z,30.73
2023-02-16T08:17:07.602Z,31.98
2023-02-16T08:19:34.656Z,29.77
2023-02-16T08:22:02.562Z,32.00
2023-02-16T08:24:29.552Z,29.83
2023-02-16T08:26:56.657Z,32.95
2023-02-16T08:29:23.979Z,31.58
2023-02-16T08:31:51.771Z,33.22
2023-02-16T08:34:20.431Z,31.60
2023-02-16T08:36:51.326Z,30.65
2023-02-16T08:39:20.853Z,32.63
2023-02-16T08:41:49.714Z,31.50
2023-02-16T08:44:18.385Z,30.98
2023-02-16T08:46:47.522Z,30.33
2023-02-16T08:49:17.291Z,30.67
2023-02-16T08:51:47.291Z,30.25
2023-02-16T08:54:19.833Z,29.83
2023-02-16T08:56:48.019Z,31.00
2023-02-16T08:59:17.341Z,30.75
2023-02-16T09:01:44.825Z,29.20
2023-02-16T09:04:13.044Z,29.17
2023-02-16T09:06:42.477Z,30.33
2023-02-16T09:09:09.928Z,28.65
2023-02-16T09:11:37.338Z,29.20
2023-02-16T09:14:04.998Z,30.83
2023-02-16T09:16:38.508Z,28.58
2023-02-16T09:19:06.638Z,28.35
2023-02-16T09:21:33.669Z,29.55
2023-02-16T09:24:03.360Z,28.10
2023-02-16T09:26:38.434Z,29.33
2023-02-16T09:29:07.023Z,28.38
2023-02-16T09:31:37.323Z,28.98
2023-02-16T09:34:16.003Z,29.10
2023-02-16T09:36:43.096Z,28.17
2023-02-16T09:39:09.979Z,28.25
2023-02-16T09:41:45.364Z,27.17
2023-02-16T09:44:53.355Z,27.08
2023-02-16T09:47:26.223Z,27.08
2023-02-16T09:49:56.423Z,27.98
2023-02-16T09:52:40.412Z,26.55
2023-02-16T09:55:18.523Z,26.17
2023-02-16T09:57:55.622Z,26.35
2023-02-16T10:00:34.403Z,26.52
2023-02-16T10:03:26.596Z,27.60
2023-02-16T10:06:29.288Z,27.17
2023-02-16T10:09:00.459Z,26.08
2023-02-16T10:11:38.747Z,27.00
2023-02-16T10:14:18.562Z,27.67
2023-02-16T10:16:59.046Z,27.50
2023-02-16T10:19:36.139Z,27.55
2023-02-16T10:22:06.776Z,26.75
2023-02-16T10:24:51.430Z,27.98
2023-02-16T10:27:32.715Z,27.90
2023-02-16T10:29:59.368Z,28.73
2023-02-16T10:32:30.484Z,28.00
2023-02-16T10:35:11.530Z,29.83
2023-02-16T10:37:59.148Z,26.35
2023-02-16T10:40:46.558Z,28.50
2023-02-16T10:43:37.227Z,27.65
2023-02-16T10:46:05.948Z,27.48
2023-02-16T10:48:33.261Z,27.17
2023-02-16T10:51:06.320Z,26.73
2023-02-16T10:53:56.990Z,27.35
2023-02-16T10:56:31.876Z,27.20
2023-02-16T10:59:00.747Z,25.77
2023-02-16T11:01:36.168Z,23.95
2023-02-16T11:04:03.827Z,23.30
2023-02-16T11:06:30.881Z,23.55
2023-02-16T11:09:01.071Z,22.17
2023-02-16T11:11:38.650Z,22.20
2023-02-16T11:14:09.164Z,22.23
2023-02-16T11:16:36.006Z,21.48
2023-02-16T11:19:07.672Z,21.77
2023-02-16T11:21:55.184Z,21.10
2023-02-16T11:24:33.236Z,21.67
2023-02-16T11:27:22.878Z,22.42
2023-02-16T11:32:21.380Z,21.45
2023-02-16T11:34:52.976Z,22.65
2023-02-16T11:37:22.431Z,21.85
2023-02-16T11:39:55.630Z,23.02
2023-02-16T11:42:34.891Z,22.17
2023-02-16T11:45:04.897Z,22.02
2023-02-16T11:47:38.198Z,21.95
2023-02-16T11:50:20.983Z,22.13
2023-02-16T11:52:53.092Z,22.88
2023-02-16T11:55:33.316Z,22.90
2023-02-16T11:58:20.117Z,22.00
2023-02-16T12:01:12.953Z,22.30
2023-02-16T12:04:12.837Z,21.58
2023-02-16T12:06:55.194Z,22.15
2023-02-16T12:09:29.532Z,22.17
2023-02-16T12:12:20.954Z,22.42
2023-02-16T12:15:03.429Z,21.63
2023-02-16T12:17:56.912Z,22.20
2023-02-16T12:20:39.091Z,22.73
2023-02-16T12:23:53.594Z,22.73
2023-02-16T12:26:38.252Z,22.20
2023-02-16T12:29:23.745Z,21.83
2023-02-16T12:32:01.980Z,22.67
2023-02-16T12:34:43.991Z,21.20
2023-02-16T12:37:33.442Z,21.75
2023-02-16T12:40:36.658Z,21.80
2023-02-16T12:43:25.039Z,21.48
2023-02-16T12:45:54.164Z,22.08
2023-02-16T12:48:30.258Z,21.20
2023-02-16T12:50:58.832Z,21.23
2023-02-16T12:53:36.255Z,20.73
2023-02-16T12:56:08.234Z,21.13
2023-02-16T12:58:39.477Z,21.90
2023-02-16T13:01:21.711Z,23.30
2023-02-16T13:04:07.948Z,21.90
2023-02-16T13:06:47.151Z,21.08
2023-02-16T13:09:50.737Z,22.15
2023-02-16T13:12:32.659Z,20.55
2023-02-16T13:15:06.409Z,22.17
2023-02-16T13:17:55.994Z,21.10
2023-02-16T13:22:54.699Z,20.48
2023-02-16T13:25:30.032Z,22.08
2023-02-16T13:28:24.028Z,21.77
2023-02-16T13:31:32.312Z,22.95
2023-02-16T13:34:20.264Z,22.75
2023-02-16T13:37:02.908Z,21.67
2023-02-16T13:39:51.237Z,22.90
2023-02-16T13:42:42.629Z,23.05
2023-02-16T13:45:20.004Z,22.00
2023-02-16T13:47:46.787Z,23.90
2023-02-16T13:50:22.374Z,23.60
2023-02-16T13:52:51.907Z,25.00
2023-02-16T13:58:09.347Z,22.90
2023-02-16T14:00:47.829Z,23.67
2023-02-16T14:03:17.623Z,24.13
2023-02-16T14:05:46.999Z,23.90
2023-02-16T14:08:19.819Z,24.95
2023-02-16T14:10:53.115Z,25.17
2023-02-16T14:13:37.798Z,24.65
2023-02-16T14:16:22.453Z,25.33
2023-02-16T14:18:56.982Z,26.17
2023-02-16T14:21:41.159Z,25.70
2023-02-16T14:24:13.617Z,24.48
2023-02-16T14:26:59.546Z,24.27
2023-02-16T14:29:40.745Z,24.90
2023-02-16T14:32:13.787Z,25.30
2023-02-16T14:34:50.747Z,25.15
2023-02-16T14:37:17.310Z,24.95
2023-02-16T14:40:06.629Z,24.85
2023-02-16T14:42:35.722Z,25.60
2023-02-16T14:45:08.561Z,26.50
2023-02-16T14:47:40.441Z,24.95
2023-02-16T14:50:18.061Z,24.75
2023-02-16T14:52:50.632Z,27.38
2023-02-16T14:56:03.204Z,26.23
2023-02-16T14:58:52.070Z,25.92
2023-02-16T15:01:21.438Z,25.13
2023-02-16T15:03:51.513Z,25.50
2023-02-16T15:06:23.260Z,26.05
2023-02-16T15:08:58.554Z,25.58
2023-02-16T15:11:30.643Z,26.80
2023-02-16T15:14:25.529Z,26.95
2023-02-16T15:16:54.192Z,27.30
2023-02-16T15:19:28.721Z,27.27
2023-02-16T15:22:28.828Z,26.52
2023-02-16T15:25:04.921Z,26.83
2023-02-16T15:27:35.071Z,25.98
2023-02-16T15:30:22.840Z,26.80
2023-02-16T15:32:56.243Z,26.48
2023-02-16T15:35:27.628Z,27.58
2023-02-16T15:38:20.979Z,25.27
2023-02-16T15:40:51.752Z,26.02
2023-02-16T15:43:26.984Z,26.55
2023-02-16T15:45:55.089Z,26.10
2023-02-16T15:48:29.590Z,27.45
2023-02-16T15:51:20.551Z,27.70
2023-02-16T15:53:51.529Z,28.38
2023-02-16T15:56:31.551Z,27.67
2023-02-16T15:59:02.274Z,27.05
2023-02-16T16:01:37.281Z,28.20
2023-02-16T16:04:24.479Z,27.80
2023-02-16T16:06:52.599Z,29.80
2023-02-16T16:09:31.406Z,27.33
2023-02-16T16:12:08.368Z,28.47
2023-02-16T16:14:50.702Z,27.52
2023-02-16T16:17:21.507Z,26.77
2023-02-16T16:19:48.913Z,28.50
2023-02-16T16:22:31.969Z,29.25
2023-02-16T16:24:59.779Z,27.95
2023-02-16T16:27:36.760Z,28.52
2023-02-16T16:30:33.082Z,26.55
2023-02-16T16:33:09.257Z,28.45
2023-02-16T16:35:38.021Z,28.15
2023-02-16T16:38:07.351Z,28.25
2023-02-16T16:40:36.476Z,28.05
2023-02-16T16:43:03.492Z,28.55
2023-02-16T16:45:44.621Z,29.23
2023-02-16T16:48:31.106Z,29.83
2023-02-16T16:51:18.115Z,27.88
2023-02-16T16:53:53.123Z,27.73
2023-02-16T16:56:21.295Z,29.50
2023-02-16T16:58:50.471Z,29.35
2023-02-16T17:01:18.570Z,27.30
2023-02-16T17:03:45.764Z,28.25
2023-02-16T17:06:14.347Z,26.02
2023-02-16T17:08:42.173Z,28.33
2023-02-16T17:11:29.707Z,27.85
2023-02-16T17:13:58.784Z,28.52
2023-02-16T17:16:33.266Z,28.77
2023-02-16T17:19:00.303Z,29.20
2023-02-16T17:21:27.348Z,28.75
2023-02-16T17:23:54.502Z,29.67
2023-02-16T17:26:24.927Z,32.15
2023-02-16T17:28:52.292Z,31.38
2023-02-16T17:31:19.322Z,31.30
2023-02-16T17:33:46.439Z,29.13
2023-02-16T17:36:15.546Z,29.40
2023-02-16T17:38:43.554Z,29.10
2023-02-16T17:41:29.963Z,28.33
2023-02-16T17:43:57.125Z,30.35
2023-02-16T17:46:25.722Z,29.58
2023-02-16T17:48:55.517Z,29.25
2023-02-16T17:51:26.227Z,28.20
2023-02-16T17:53:53.262Z,30.10
2023-02-16T17:56:23.078Z,29.05
2023-02-16T17:58:50.917Z,30.95
2023-02-16T18:01:19.315Z,30.55
2023-02-16T18:03:46.692Z,29.23
2023-02-16T18:06:15.677Z,29.00
2023-02-16T18:08:43.326Z,27.13
2023-02-16T18:11:10.800Z,27.17
2023-02-16T18:13:38.002Z,27.60
2023-02-16T18:16:07.634Z,26.13
2023-02-16T18:18:36.908Z,27.08
2023-02-16T18:21:04.129Z,25.63
2023-02-16T18:23:31.425Z,27.45
2023-02-16T18:25:58.573Z,26.67
2023-02-16T18:28:29.636Z,26.92
2023-02-16T18:30:57.229Z,24.83
2023-02-16T18:33:25.835Z,26.40
2023-02-16T18:35:55.780Z,24.15
2023-02-16T18:38:23.407Z,24.70
2023-02-16T18:40:53.206Z,24.42
2023-02-16T18:43:21.301Z,24.00
2023-02-16T18:45:49.227Z,24.17
2023-02-16T18:48:16.506Z,24.38
2023-02-16T18:50:43.623Z,25.50
2023-02-16T18:53:10.846Z,26.13
2023-02-16T18:55:37.847Z,24.92
2023-02-16T18:58:08.094Z,23.80
2023-02-16T19:00:37.006Z,24.85
2023-02-16T19:03:04.578Z,24.77
2023-02-16T19:05:32.222Z,21.10
2023-02-16T19:07:59.346Z,20.40
2023-02-16T19:10:26.370Z,19.70
2023-02-16T19:12:53.532Z,19.60
2023-02-16T19:15:20.681Z,18.70
2023-02-16T19:17:48.304Z,18.67
2023-02-16T19:20:18.140Z,19.50
2023-02-16T19:22:46.216Z,19.95
2023-02-16T19:25:13.571Z,18.88
2023-02-16T19:27:40.731Z,18.23
2023-02-16T19:30:08.315Z,19.58
2023-02-16T19:32:35.665Z,19.65
2023-02-16T19:35:03.669Z,18.52
2023-02-16T19:37:30.435Z,18.17
2023-02-16T19:39:57.008Z,19.83
2023-02-16T19:42:23.705Z,19.70
2023-02-16T19:44:50.625Z,19.33
2023-02-16T19:47:17.330Z,19.27
2023-02-16T19:49:43.892Z,19.23
2023-02-16T19:52:11.281Z,20.20
2023-02-16T19:54:37.993Z,20.35
2023-02-16T19:57:05.092Z,20.20
2023-02-16T19:59:32.718Z,18.95
2023-02-16T20:01:59.376Z,18.08
2023-02-16T20:04:26.508Z,18.02
2023-02-16T20:06:54.544Z,19.48
2023-02-16T20:09:22.014Z,18.02
2023-02-16T20:11:49.024Z,18.30
2023-02-16T20:14:15.687Z,18.65
2023-02-16T20:16:42.325Z,17.73
2023-02-16T20:19:09.007Z,17.73
2023-02-16T20:21:35.593Z,17.90
2023-02-16T20:24:05.032Z,17.52
2023-02-16T20:26:34.612Z,17.77
2023-02-16T20:31:40.858Z,16.88
2023-02-16T20:34:08.155Z,17.23
2023-02-16T20:36:35.949Z,17.75
2023-02-16T20:39:04.549Z,20.08
2023-02-16T20:41:31.176Z,18.70
2023-02-16T20:43:57.787Z,19.45
2023-02-16T20:46:24.896Z,19.45
2023-02-16T20:48:52.059Z,18.40
2023-02-16T20:51:19.718Z,19.92
2023-02-16T20:53:46.484Z,19.50
2023-02-16T20:56:22.140Z,18.80
2023-02-16T20:58:50.485Z,19.67
2023-02-16T21:01:24.201Z,18.63
2023-02-16T21:03:52.772Z,18.30
2023-02-16T21:06:19.669Z,19.45
2023-02-16T21:08:47.126Z,19.42
2023-02-16T21:11:14.493Z,20.30
2023-02-16T21:13:41.436Z,19.77
2023-02-16T21:16:08.804Z,19.40
2023-02-16T21:18:36.870Z,18.90
2023-02-16T21:21:04.527Z,21.43
2023-02-16T21:23:31.191Z,21.13
2023-02-16T21:26:00.466Z,21.63
2023-02-16T21:28:27.516Z,22.77
2023-02-16T21:30:54.815Z,21.88
2023-02-16T21:33:21.789Z,23.20
2023-02-16T21:35:48.324Z,24.83
2023-02-16T21:38:15.090Z,24.23
2023-02-16T21:41:00.163Z,25.17
2023-02-16T21:43:26.786Z,25.48
2023-02-16T21:46:03.049Z,25.88
2023-02-16T21:48:48.199Z,26.02
2023-02-16T21:51:20.575Z,26.02
2023-02-16T21:53:47.305Z,25.95
2023-02-16T21:56:25.519Z,27.17
2023-02-16T21:58:52.113Z,27.27
2023-02-16T22:01:24.749Z,27.40
2023-02-16T22:03:56.159Z,28.67
2023-02-16T22:06:24.739Z,29.13
2023-02-16T22:08:51.447Z,27.75
2023-02-16T22:11:18.108Z,28.50
2023-02-16T22:13:44.724Z,30.23
2023-02-16T22:16:13.753Z,32.17
2023-02-16T22:18:40.881Z,30.65
2023-02-16T22:21:08.767Z,31.27
2023-02-16T22:23:37.076Z,32.30
2023-02-16T22:26:06.197Z,30.88
2023-02-16T22:28:34.123Z,32.70
2023-02-16T22:31:07.084Z,33.28
2023-02-16T22:33:33.901Z,33.78
2023-02-16T22:36:06.942Z,33.35
2023-02-16T22:38:34.070Z,32.88
2023-02-16T22:41:04.526Z,34.40
2023-02-16T22:43:31.133Z,34.20
2023-02-16T22:45:57.748Z,33.42
2023-02-16T22:48:24.377Z,33.58
2023-02-16T22:50:59.223Z,33.55
2023-02-16T22:53:27.009Z,32.95
2023-02-16T22:55:54.703Z,33.10
2023-02-16T22:58:22.339Z,33.78
2023-02-16T23:00:50.082Z,35.53
2023-02-16T23:03:17.042Z,34.33
2023-02-16T23:05:43.648Z,33.78
2023-02-16T23:08:11.566Z,34.65
2023-02-16T23:10:39.983Z,33.75
2023-02-16T23:13:08.909Z,35.55
2023-02-16T23:15:36.139Z,35.13
2023-02-16T23:18:02.995Z,36.78
2023-02-16T23:20:29.648Z,37.47
2023-02-16T23:22:56.238Z,37.20
2023-02-16T23:25:35.053Z,38.17
2023-02-16T23:28:03.490Z,37.97
2023-02-16T23:30:31.158Z,40.38
2023-02-16T23:32:57.862Z,38.90
2023-02-16T23:35:24.604Z,40.67
2023-02-16T23:37:51.205Z,41.53
2023-02-16T23:40:17.830Z,38.47
2023-02-16T23:42:44.400Z,40.67
2023-02-16T23:45:10.992Z,40.97
2023-02-16T23:47:37.582Z,39.72
2023-02-16T23:50:04.696Z,41.42
2023-02-16T23:52:31.214Z,41.97
2023-02-16T23:54:57.874Z,40.05
2023-02-16T23:57:24.471Z,40.13
2023-02-16T23:59:51.021Z,38.70
